Pagrindinis puslapis
METAR-TAF:

METAR-TAF

Oro uostai :

King Cove, Aliaska, Jungtinės Amerikos Valstijos

platuma: 55-06-59N, ilguma: 162-15-58W, Aukštis: 47 m

Dabartinis oras

Ataskaita buvo paskelbta 22 minutes, ne 22:46 UTC
Vėjas 12 kt iš Pietvakarių
Temperatūra 9°C
Drėgmė 81%
Slėgis 1022 hPa
Matomumas: 16.1 km
Su prošvaistėmis ne aukštis 3000 ft
Apsiniaukę ne aukštis 3900 ft

METAR: PAVC 052246Z AUTO 23012KT 10SM BKN030 OVC039 09/06 A3019 RMK AO2

Laikas: 15:08 (23:08 UTC)


TAF: trūkstamas

Orai ataskaitas ir orų prognozės (METAR, TAF).

turimą stotys yra geltonos ir raudonos taškus žemėlapyje.

Perkelti pele per norėdami pamatyti stoties vardą.

Tada spustelėkite, norėdami matyti oro stebėjimo ir prognozės.

Norėdami pakeisti žemėlapį: spustelėkite ant žalios mygtukų su juodo kryžiaus žemyn,; žalią mygtuką su brūkšneliu, jei norite nutolinti; arba žalių rodyklių gretimoms žemėlapius.


METAR-TAF: